Huvudsida
METAR-TAF:

METAR-TAF

Flygplatser :

Malés internationella flygplats

Malé, Maldiverna

latitud: 04-12N, longitud: 073-32E, höjd: 2 m

Aktuellt väderrapport

Denna rapport gjordes för 50 minuter sedan, klockan 11:00 UTC
Vind 11 kt från väst
Temperatur 30°C
Fuktighet 70%
Tryck 1008 hPa
Sikt 10 km eller mer
Spridda moln på en höjd av 1800 ft, Högtornande cumulus.
Brutna moln på en höjd av 28000 ft

METAR: VRMM 251100Z 27011KT 9999 SCT018TCU BKN280 30/24 Q1008 TEMPO FEW018CB

Tid: 16:50 (11:50 UTC)

Väderprognos

Denna rapport gjordes för 50 minuter sedan, klockan 11:00 UTC
Prognos gäller från 25 kl. 12 UTC till 26 kl. 18 UTC
Vind 11 kt från väst
Sikt 10 km eller mer
Få moln på en höjd av 1800 ft, Högtornande cumulus.
Temporärt
från 25 kl. 13 UTC till 25 kl. 20 UTC
Sikt: 5000 m
Få moln på en höjd av 1700 ft, Cumulonimbus.
åska, lätt regn

TAF: VRMM 251100Z 2512/2618 27011KT 9999 FEW018TCU TEMPO 2513/2520 5000 -TSRA FEW017CB

Aktuella väderrapporter och prognoser från 4000 flygplatser (METAR- och TAF-rapporter).

De tillgängliga stationerna syns som gula och röda prickar på kartan.

För musen över prickarna för att se namnen på stationerna.

Klicka sedan för att få väderrapporter och prognoser.

För att ändra kartan: Klicka på de gröna knapparna med ett svart kors på för att zooma in; den gröna knappen med ett streck på för att zooma ut; eller på de gröna pilarna för angränsande kartor.


METAR-TAF: